Time,TemperatureF,DewpointF,PressureIn,WindDirection,WindDirectionDegrees,WindSpeedMPH,WindSpeedGustMPH,Humidity,HourlyPrecipIn,Conditions,Clouds,dailyrainin,SolarRadiationWatts/m^2,SoftwareType,DateUTC
2013-03-31 00:00:00,31.4,20.2,30.08,NW,306,0.0,0.0,63,0.00,CLR,,0.00,0.0,WeatherDisplay:10.37,2013-03-31 04:00:00,
2013-03-31 00:05:00,31.2,21.5,30.08,NW,305,0.0,0.0,67,0.00,CLR,,0.00,0.0,WeatherDisplay:10.37,2013-03-31 04:05:00,
2013-03-31 00:10:00,31.0,21.7,30.08,NW,305,0.0,0.0,68,0.00,CLR,,0.00,0.0,WeatherDisplay:10.37,2013-03-31 04:10:00,
2013-03-31 00:15:00,30.8,21.5,30.08,NW,305,0.0,0.0,68,0.00,CLR,,0.00,0.0,WeatherDisplay:10.37,2013-03-31 04:15:00,
2013-03-31 00:20:00,30.6,20.2,30.08,NW,305,0.0,0.0,65,0.00,CLR,,0.00,0.0,WeatherDisplay:10.37,2013-03-31 04:20:00,
2013-03-31 00:25:00,30.4,20.4,30.08,NW,305,0.0,0.0,66,0.00,CLR,,0.00,0.0,WeatherDisplay:10.37,2013-03-31 04:25:00,
2013-03-31 00:30:00,30.2,20.6,30.08,NW,305,0.0,0.0,67,0.00,CLR,,0.00,0.0,WeatherDisplay:10.37,2013-03-31 04:30:00,
2013-03-31 00:35:00,30.2,20.9,30.08,NW,305,0.0,0.0,68,0.00,CLR,,0.00,0.0,WeatherDisplay:10.37,2013-03-31 04:35:00,
2013-03-31 00:40:00,30.0,20.7,30.08,NW,305,0.0,0.0,68,0.00,CLR,,0.00,0.0,WeatherDisplay:10.37,2013-03-31 04:40:00,
2013-03-31 00:45:00,29.9,20.6,30.08,NW,305,0.0,0.0,68,0.00,CLR,,0.00,0.0,WeatherDisplay:10.37,2013-03-31 04:45:00,
2013-03-31 00:50:00,29.8,20.2,30.08,NW,305,0.0,0.0,67,0.00,CLR,,0.00,0.0,WeatherDisplay:10.37,2013-03-31 04:50:00,
2013-03-31 00:55:00,29.7,20.1,30.08,NW,306,0.0,0.0,67,0.00,CLR,,0.00,0.0,WeatherDisplay:10.37,2013-03-31 04:55:00,
2013-03-31 01:00:00,29.5,20.2,30.08,NW,306,0.0,0.0,68,0.00,CLR,,0.00,0.0,WeatherDisplay:10.37,2013-03-31 05:00:00,
2013-03-31 01:05:00,29.4,20.8,30.08,NW,305,0.0,0.0,70,0.00,CLR,,0.00,0.0,WeatherDisplay:10.37,2013-03-31 05:05:00,
2013-03-31 01:10:00,29.3,20.7,30.08,NW,305,0.0,0.0,70,0.00,CLR,,0.00,0.0,WeatherDisplay:10.37,2013-03-31 05:10:00,
2013-03-31 01:15:00,29.1,20.2,30.08,NW,305,0.0,0.0,69,0.00,CLR,,0.00,0.0,WeatherDisplay:10.37,2013-03-31 05:15:00,
2013-03-31 01:20:00,28.9,19.7,30.08,NW,305,0.0,0.0,68,0.00,CLR,,0.00,0.0,WeatherDisplay:10.37,2013-03-31 05:20:00,
2013-03-31 01:25:00,28.9,20.3,30.08,NW,305,0.0,0.0,70,0.00,CLR,,0.00,0.0,WeatherDisplay:10.37,2013-03-31 05:25:00,
2013-03-31 01:30:00,28.8,20.2,30.08,NW,305,0.0,0.0,70,0.00,CLR,,0.00,0.0,WeatherDisplay:10.37,2013-03-31 05:30:00,
2013-03-31 01:35:00,28.8,20.6,30.08,NW,305,0.0,0.0,71,0.00,CLR,,0.00,0.0,WeatherDisplay:10.37,2013-03-31 05:35:00,
2013-03-31 01:40:00,28.7,20.5,30.08,NW,305,0.0,0.0,71,0.00,CLR,,0.00,0.0,WeatherDisplay:10.37,2013-03-31 05:40:00,
2013-03-31 01:45:00,28.6,20.7,30.08,NW,306,0.0,0.0,72,0.00,CLR,,0.00,0.0,WeatherDisplay:10.37,2013-03-31 05:45:00,
2013-03-31 01:50:00,28.6,20.7,30.08,NW,305,0.0,0.0,72,0.00,CLR,,0.00,0.0,WeatherDisplay:10.37,2013-03-31 05:50:00,
2013-03-31 01:55:00,28.6,21.0,30.08,NW,305,0.0,0.0,73,0.00,CLR,,0.00,0.0,WeatherDisplay:10.37,2013-03-31 05:55:00,
2013-03-31 02:00:00,28.5,20.6,30.08,NW,305,0.0,0.0,72,0.00,CLR,,0.00,0.0,WeatherDisplay:10.37,2013-03-31 06:00:00,
2013-03-31 02:05:00,28.4,20.8,30.08,NW,305,0.0,0.0,73,0.00,CLR,,0.00,0.0,WeatherDisplay:10.37,2013-03-31 06:05:00,
2013-03-31 02:10:00,28.3,20.7,30.08,NW,305,0.0,0.0,73,0.00,CLR,,0.00,0.0,WeatherDisplay:10.37,2013-03-31 06:10:00,
2013-03-31 02:15:00,28.2,20.7,30.08,NW,305,0.0,0.0,73,0.00,CLR,,0.00,0.0,WeatherDisplay:10.37,2013-03-31 06:15:00,
2013-03-31 02:20:00,28.0,20.5,30.08,NW,306,0.0,0.0,73,0.00,CLR,,0.00,0.0,WeatherDisplay:10.37,2013-03-31 06:20:00,
2013-03-31 02:25:00,27.9,20.4,30.08,NW,305,0.0,0.0,73,0.00,CLR,,0.00,0.0,WeatherDisplay:10.37,2013-03-31 06:25:00,
2013-03-31 02:30:00,27.8,20.6,30.08,NW,305,0.0,0.0,74,0.00,CLR,,0.00,0.0,WeatherDisplay:10.37,2013-03-31 06:30:00,
2013-03-31 02:35:00,27.6,20.4,30.08,NW,305,0.0,0.0,74,0.00,CLR,,0.00,0.0,WeatherDisplay:10.37,2013-03-31 06:35:00,
2013-03-31 02:40:00,27.5,20.3,30.08,NW,305,0.0,0.0,74,0.00,CLR,,0.00,0.0,WeatherDisplay:10.37,2013-03-31 06:40:00,
2013-03-31 02:45:00,27.3,20.1,30.08,NW,305,0.0,0.0,74,0.00,CLR,,0.00,0.0,WeatherDisplay:10.37,2013-03-31 06:45:00,
2013-03-31 02:50:00,27.3,20.1,30.08,NW,305,0.0,0.0,74,0.00,CLR,,0.00,0.0,WeatherDisplay:10.37,2013-03-31 06:50:00,
2013-03-31 02:55:00,27.4,20.5,30.08,NW,305,0.0,0.0,75,0.00,CLR,,0.00,0.0,WeatherDisplay:10.37,2013-03-31 06:55:00,
2013-03-31 03:00:00,27.5,20.9,30.07,NW,305,0.0,0.0,76,0.00,CLR,,0.00,0.0,WeatherDisplay:10.37,2013-03-31 07:00:00,
2013-03-31 03:05:00,27.7,21.7,30.07,NW,305,0.0,0.0,78,0.00,CLR,,0.00,0.0,WeatherDisplay:10.37,2013-03-31 07:05:00,
2013-03-31 03:10:00,27.7,22.0,30.07,NW,304,0.0,0.0,79,0.00,CLR,,0.00,0.0,WeatherDisplay:10.37,2013-03-31 07:10:00,
2013-03-31 03:15:00,27.8,22.1,30.07,NW,305,0.0,0.0,79,0.00,CLR,,0.00,0.0,WeatherDisplay:10.37,2013-03-31 07:15:00,
2013-03-31 03:20:00,27.7,22.0,30.07,NW,305,0.0,0.0,79,0.00,CLR,,0.00,0.0,WeatherDisplay:10.37,2013-03-31 07:20:00,
2013-03-31 03:25:00,27.6,21.9,30.07,NW,305,0.0,0.0,79,0.00,CLR,,0.00,0.0,WeatherDisplay:10.37,2013-03-31 07:25:00,
2013-03-31 03:30:00,27.6,22.2,30.07,NW,305,0.0,0.0,80,0.00,CLR,,0.00,0.0,WeatherDisplay:10.37,2013-03-31 07:30:00,
2013-03-31 03:35:00,27.5,21.8,30.07,NW,305,0.0,0.0,79,0.00,CLR,,0.00,0.0,WeatherDisplay:10.37,2013-03-31 07:35:00,
2013-03-31 03:40:00,27.4,22.0,30.07,NW,305,0.0,0.0,80,0.00,CLR,,0.00,0.0,WeatherDisplay:10.37,2013-03-31 07:40:00,
2013-03-31 03:45:00,27.3,22.2,30.07,NW,305,0.0,0.0,81,0.00,CLR,,0.00,0.0,WeatherDisplay:10.37,2013-03-31 07:45:00,
2013-03-31 03:50:00,27.3,22.2,30.07,NW,305,0.0,0.0,81,0.00,CLR,,0.00,0.0,WeatherDisplay:10.37,2013-03-31 07:50:00,
2013-03-31 03:55:00,27.2,21.8,30.07,NW,306,0.0,0.0,80,0.00,CLR,,0.00,0.0,WeatherDisplay:10.37,2013-03-31 07:55:00,
2013-03-31 04:00:00,27.1,21.7,30.07,NW,306,0.0,0.0,80,0.00,CLR,,0.00,0.0,WeatherDisplay:10.37,2013-03-31 08:00:00,
2013-03-31 04:05:00,27.0,21.7,30.07,NW,305,0.0,0.0,80,0.00,CLR,,0.00,0.0,WeatherDisplay:10.37,2013-03-31 08:05:00,
2013-03-31 04:10:00,26.8,21.2,30.07,NW,305,0.0,0.0,79,0.00,CLR,,0.00,0.0,WeatherDisplay:10.37,2013-03-31 08:10:00,
2013-03-31 04:15:00,26.7,20.8,30.07,NW,305,0.0,0.0,78,0.00,CLR,,0.00,0.0,WeatherDisplay:10.37,2013-03-31 08:15:00,
2013-03-31 04:20:00,26.6,20.4,30.07,NW,306,0.0,0.0,77,0.00,CLR,,0.00,0.0,WeatherDisplay:10.37,2013-03-31 08:20:00,
2013-03-31 04:25:00,26.4,20.2,30.08,NW,305,0.0,0.0,77,0.00,CLR,,0.00,0.0,WeatherDisplay:10.37,2013-03-31 08:25:00,
2013-03-31 04:30:00,26.3,20.1,30.08,NW,305,0.0,0.0,77,0.00,CLR,,0.00,0.0,WeatherDisplay:10.37,2013-03-31 08:30:00,
2013-03-31 04:35:00,26.2,20.0,30.08,NW,305,0.0,0.0,77,0.00,CLR,,0.00,0.0,WeatherDisplay:10.37,2013-03-31 08:35:00,
2013-03-31 04:40:00,26.0,19.8,30.08,NW,305,0.0,0.0,77,0.00,CLR,,0.00,0.0,WeatherDisplay:10.37,2013-03-31 08:40:00,
2013-03-31 04:45:00,25.9,19.7,30.08,NW,305,0.0,0.0,77,0.00,CLR,,0.00,0.0,WeatherDisplay:10.37,2013-03-31 08:45:00,
2013-03-31 04:50:00,25.8,19.6,30.08,NW,305,0.0,0.0,77,0.00,CLR,,0.00,0.0,WeatherDisplay:10.37,2013-03-31 08:50:00,
2013-03-31 04:55:00,25.7,19.5,30.08,NW,305,0.0,0.0,77,0.00,CLR,,0.00,0.0,WeatherDisplay:10.37,2013-03-31 08:55:00,
2013-03-31 05:00:00,25.6,19.4,30.08,NW,305,0.0,0.0,77,0.00,CLR,,0.00,0.0,WeatherDisplay:10.37,2013-03-31 09:00:00,
2013-03-31 05:05:00,25.5,19.6,30.08,NW,305,0.0,0.0,78,0.00,CLR,,0.00,0.0,WeatherDisplay:10.37,2013-03-31 09:05:00,
2013-03-31 05:10:00,25.4,19.5,30.08,NW,305,0.0,0.0,78,0.00,CLR,,0.00,0.0,WeatherDisplay:10.37,2013-03-31 09:10:00,
2013-03-31 05:15:00,25.3,19.4,30.08,NW,305,0.0,0.0,78,0.00,CLR,,0.00,0.0,WeatherDisplay:10.37,2013-03-31 09:15:00,
2013-03-31 05:20:00,25.3,20.0,30.08,NW,306,0.0,0.0,80,0.00,CLR,,0.00,0.0,WeatherDisplay:10.37,2013-03-31 09:20:00,
2013-03-31 05:25:00,25.2,19.6,30.08,NW,305,0.0,0.0,79,0.00,CLR,,0.00,0.0,WeatherDisplay:10.37,2013-03-31 09:25:00,
2013-03-31 05:30:00,25.3,20.0,30.07,NW,305,0.0,0.0,80,0.00,CLR,,0.00,0.0,WeatherDisplay:10.37,2013-03-31 09:30:00,
2013-03-31 05:35:00,25.4,20.4,30.07,NW,305,0.0,0.0,81,0.00,CLR,,0.00,0.0,WeatherDisplay:10.37,2013-03-31 09:35:00,
2013-03-31 05:40:00,25.4,20.1,30.07,NW,304,0.0,0.0,80,0.00,CLR,,0.00,0.0,WeatherDisplay:10.37,2013-03-31 09:40:00,
2013-03-31 05:45:00,25.4,20.1,30.07,West,261,0.0,0.0,80,0.00,CLR,,0.00,0.0,WeatherDisplay:10.37,2013-03-31 09:45:00,
2013-03-31 05:50:00,25.6,20.9,30.07,West,261,0.0,0.0,82,0.00,CLR,,0.00,0.0,WeatherDisplay:10.37,2013-03-31 09:50:00,
2013-03-31 05:55:00,25.7,21.0,30.07,West,261,0.0,0.0,82,0.00,CLR,,0.00,0.0,WeatherDisplay:10.37,2013-03-31 09:55:00,
2013-03-31 06:00:00,25.7,21.0,30.07,West,261,0.0,0.0,82,0.00,CLR,,0.00,0.0,WeatherDisplay:10.37,2013-03-31 10:00:00,
2013-03-31 06:05:00,25.5,20.5,30.07,West,262,0.0,0.0,81,0.00,CLR,,0.00,0.0,WeatherDisplay:10.37,2013-03-31 10:05:00,
2013-03-31 06:10:00,25.5,20.2,30.07,West,261,0.0,0.0,80,0.00,CLR,,0.00,0.0,WeatherDisplay:10.37,2013-03-31 10:10:00,
2013-03-31 06:15:00,25.4,19.8,30.07,West,261,0.0,0.0,79,0.00,CLR,,0.00,0.0,WeatherDisplay:10.37,2013-03-31 10:15:00,
2013-03-31 06:20:00,25.3,19.7,30.07,West,261,0.0,0.0,79,0.00,CLR,,0.00,0.0,WeatherDisplay:10.37,2013-03-31 10:20:00,
2013-03-31 06:25:00,25.3,19.7,30.07,West,261,0.0,0.0,79,0.00,CLR,,0.00,0.0,WeatherDisplay:10.37,2013-03-31 10:25:00,
2013-03-31 06:30:00,25.3,19.7,30.07,West,261,0.0,0.0,79,0.00,CLR,,0.00,0.0,WeatherDisplay:10.37,2013-03-31 10:30:00,
2013-03-31 06:35:00,25.2,19.6,30.07,West,261,0.0,0.0,79,0.00,CLR,,0.00,5.0,WeatherDisplay:10.37,2013-03-31 10:35:00,
2013-03-31 06:40:00,25.2,19.6,30.07,West,261,0.0,0.0,79,0.00,CLR,,0.00,7.0,WeatherDisplay:10.37,2013-03-31 10:40:00,
2013-03-31 06:45:00,25.2,19.9,30.07,West,261,0.0,0.0,80,0.00,CLR,,0.00,9.0,WeatherDisplay:10.37,2013-03-31 10:45:00,
2013-03-31 06:50:00,25.1,19.5,30.07,West,261,0.0,0.0,79,0.00,CLR,,0.00,12.0,WeatherDisplay:10.37,2013-03-31 10:50:00,
2013-03-31 06:55:00,25.1,19.5,30.07,West,261,0.0,0.0,79,0.00,CLR,,0.00,16.0,WeatherDisplay:10.37,2013-03-31 10:55:00,
2013-03-31 07:00:00,25.2,19.9,30.07,West,261,0.0,0.0,80,0.00,CLR,,0.00,16.0,WeatherDisplay:10.37,2013-03-31 11:00:00,
2013-03-31 07:05:00,25.2,19.9,30.07,West,261,0.0,0.0,80,0.00,CLR,,0.00,18.0,WeatherDisplay:10.37,2013-03-31 11:05:00,
2013-03-31 07:10:00,25.2,19.9,30.07,West,261,0.0,0.0,80,0.00,CLR,,0.00,21.0,WeatherDisplay:10.37,2013-03-31 11:10:00,
2013-03-31 07:15:00,25.2,19.9,30.07,West,261,0.0,0.0,80,0.00,CLR,,0.00,26.0,WeatherDisplay:10.37,2013-03-31 11:15:00,
2013-03-31 07:20:00,25.3,20.0,30.07,SSW,192,1.1,1.1,80,0.00,CLR,,0.00,30.0,WeatherDisplay:10.37,2013-03-31 11:20:00,
2013-03-31 07:25:00,25.5,20.5,30.07,South,172,1.1,0.0,81,0.00,CLR,,0.00,32.0,WeatherDisplay:10.37,2013-03-31 11:25:00,
2013-03-31 07:30:00,25.7,20.7,30.07,South,171,1.1,0.0,81,0.00,CLR,,0.00,33.0,WeatherDisplay:10.37,2013-03-31 11:30:00,
2013-03-31 07:35:00,25.8,20.8,30.07,South,175,1.0,0.0,81,0.00,CLR,,0.00,37.0,WeatherDisplay:10.37,2013-03-31 11:35:00,
2013-03-31 07:40:00,26.0,20.7,30.07,South,176,0.0,0.0,80,0.00,CLR,,0.00,40.0,WeatherDisplay:10.37,2013-03-31 11:40:00,
2013-03-31 07:45:00,26.2,20.6,30.07,SW,216,1.1,0.0,79,0.00,CLR,,0.00,44.0,WeatherDisplay:10.37,2013-03-31 11:45:00,
2013-03-31 07:50:00,26.4,20.8,30.07,SSW,198,3.5,0.0,79,0.00,CLR,,0.00,60.0,WeatherDisplay:10.37,2013-03-31 11:50:00,
2013-03-31 07:55:00,26.8,23.2,30.07,SSW,212,1.1,1.1,86,0.00,CLR,,0.00,102.0,WeatherDisplay:10.37,2013-03-31 11:55:00,
2013-03-31 08:00:00,27.1,21.7,30.06,South,173,2.3,2.3,80,0.00,OVC,,0.00,72.0,WeatherDisplay:10.37,2013-03-31 12:00:00,
2013-03-31 08:05:00,27.7,22.3,30.06,SSW,201,3.5,3.5,80,0.00,OVC,,0.00,86.0,WeatherDisplay:10.37,2013-03-31 12:05:00,
2013-03-31 08:10:00,28.2,22.8,30.06,SSW,205,2.3,2.3,80,0.00,OVC,,0.00,148.0,WeatherDisplay:10.37,2013-03-31 12:10:00,
2013-03-31 08:15:00,28.8,23.4,30.06,SSW,194,3.5,3.5,80,0.00,OVC,,0.00,120.0,WeatherDisplay:10.37,2013-03-31 12:15:00,
2013-03-31 08:20:00,29.4,23.7,30.06,South,190,0.0,0.0,79,0.00,OVC,,0.00,137.0,WeatherDisplay:10.37,2013-03-31 12:20:00,
2013-03-31 08:25:00,30.0,24.3,30.06,South,183,1.1,1.1,79,0.00,OVC,,0.00,127.0,WeatherDisplay:10.37,2013-03-31 12:25:00,
2013-03-31 08:30:00,30.8,24.4,30.06,South,175,4.6,4.6,77,0.00,OVC,,0.00,135.0,WeatherDisplay:10.37,2013-03-31 12:30:00,
2013-03-31 08:35:00,31.7,25.0,30.06,SSW,196,5.8,5.8,76,0.00,OVC,,0.00,120.0,WeatherDisplay:10.37,2013-03-31 12:35:00,
2013-03-31 08:40:00,32.5,25.5,30.06,South,172,0.0,0.0,75,0.00,OVC,,0.00,139.0,WeatherDisplay:10.37,2013-03-31 12:40:00,
2013-03-31 08:45:00,33.3,25.6,30.06,SSE,166,3.5,3.5,73,0.00,OVC,,0.00,172.0,WeatherDisplay:10.37,2013-03-31 12:45:00,
2013-03-31 08:50:00,34.0,25.6,30.05,SSE,164,4.6,4.6,71,0.00,OVC,,0.00,146.0,WeatherDisplay:10.37,2013-03-31 12:50:00,
2013-03-31 08:55:00,34.8,25.3,30.05,SW,215,1.1,0.0,68,0.00,OVC,,0.00,225.0,WeatherDisplay:10.37,2013-03-31 12:55:00,
2013-03-31 09:00:00,35.6,25.7,30.05,SSE,156,1.1,0.0,67,0.00,OVC,,0.00,236.0,WeatherDisplay:10.37,2013-03-31 13:00:00,
2013-03-31 09:05:00,36.4,25.4,30.05,SSW,194,4.0,4.0,64,0.00,OVC,,0.00,290.0,WeatherDisplay:10.37,2013-03-31 13:05:00,
2013-03-31 09:10:00,37.3,25.5,30.05,SSW,200,0.0,0.0,62,0.00,OVC,,0.00,236.0,WeatherDisplay:10.37,2013-03-31 13:10:00,
2013-03-31 09:15:00,38.1,25.4,30.05,South,182,3.5,3.5,60,0.00,OVC,,0.00,264.0,WeatherDisplay:10.37,2013-03-31 13:15:00,
2013-03-31 09:20:00,38.9,26.2,30.05,SSE,168,3.5,3.5,60,0.00,OVC,,0.00,223.0,WeatherDisplay:10.37,2013-03-31 13:20:00,
2013-03-31 09:25:00,39.6,26.4,30.05,SE,142,3.5,3.5,59,0.00,OVC,,0.00,285.0,WeatherDisplay:10.37,2013-03-31 13:25:00,
2013-03-31 09:30:00,40.3,27.1,30.05,South,175,8.1,8.1,59,0.00,OVC,,0.00,345.0,WeatherDisplay:10.37,2013-03-31 13:30:00,
2013-03-31 09:35:00,41.0,26.5,30.05,SSW,203,10.0,10.0,56,0.00,OVC,,0.00,318.0,WeatherDisplay:10.37,2013-03-31 13:35:00,
2013-03-31 09:40:00,41.7,26.3,30.05,SSW,192,6.9,6.9,54,0.00,OVC,,0.00,353.0,WeatherDisplay:10.37,2013-03-31 13:40:00,
2013-03-31 09:45:00,42.4,26.0,30.05,South,178,3.5,3.5,52,0.00,OVC,,0.00,341.0,WeatherDisplay:10.37,2013-03-31 13:45:00,
2013-03-31 09:50:00,43.0,26.1,30.04,SSW,192,9.2,9.2,51,0.00,OVC,,0.00,359.0,WeatherDisplay:10.37,2013-03-31 13:50:00,
2013-03-31 09:55:00,43.6,25.7,30.04,South,187,4.6,4.6,49,0.00,OVC,,0.00,376.0,WeatherDisplay:10.37,2013-03-31 13:55:00,
2013-03-31 10:00:00,44.2,26.2,30.05,SSW,209,5.8,5.8,49,0.00,OVC,,0.00,413.0,WeatherDisplay:10.37,2013-03-31 14:00:00,
2013-03-31 10:05:00,44.8,26.3,30.05,WSW,238,6.9,6.9,48,0.00,OVC,,0.00,469.0,WeatherDisplay:10.37,2013-03-31 14:05:00,
2013-03-31 10:10:00,45.2,25.1,30.05,WSW,249,9.2,9.2,45,0.00,OVC,,0.00,446.0,WeatherDisplay:10.37,2013-03-31 14:10:00,
2013-03-31 10:15:00,45.3,24.6,30.05,SW,224,8.1,8.1,44,0.00,OVC,,0.00,496.0,WeatherDisplay:10.37,2013-03-31 14:15:00,
2013-03-31 10:20:00,45.5,24.8,30.04,SW,214,6.9,6.9,44,0.00,OVC,,0.00,512.0,WeatherDisplay:10.37,2013-03-31 14:20:00,
2013-03-31 10:25:00,45.8,25.1,30.04,SSE,159,3.5,3.5,44,0.00,OVC,,0.00,466.0,WeatherDisplay:10.37,2013-03-31 14:25:00,
2013-03-31 10:30:00,46.1,25.4,30.04,SSW,200,5.8,5.8,44,0.00,OVC,,0.00,487.0,WeatherDisplay:10.37,2013-03-31 14:30:00,
2013-03-31 10:35:00,46.5,24.6,30.04,South,184,13.8,13.8,42,0.00,OVC,,0.00,417.0,WeatherDisplay:10.37,2013-03-31 14:35:00,
2013-03-31 10:40:00,46.7,24.8,30.04,SSE,167,10.4,10.4,42,0.00,OVC,,0.00,448.0,WeatherDisplay:10.37,2013-03-31 14:40:00,
2013-03-31 10:45:00,47.0,25.6,30.03,SSE,155,13.0,13.0,43,0.00,OVC,,0.00,362.0,WeatherDisplay:10.37,2013-03-31 14:45:00,
2013-03-31 10:50:00,47.3,25.3,30.03,SE,141,9.2,9.2,42,0.00,OVC,,0.00,431.0,WeatherDisplay:10.37,2013-03-31 14:50:00,
2013-03-31 10:55:00,47.5,24.9,30.03,SE,142,12.7,12.7,41,0.00,OVC,,0.00,485.0,WeatherDisplay:10.37,2013-03-31 14:55:00,
2013-03-31 11:00:00,47.8,26.4,30.03,SSW,207,10.4,10.4,43,0.00,OVC,,0.00,503.0,WeatherDisplay:10.37,2013-03-31 15:00:00,
2013-03-31 11:05:00,48.2,25.6,30.03,South,184,10.4,10.4,41,0.00,OVC,,0.00,469.0,WeatherDisplay:10.37,2013-03-31 15:05:00,
2013-03-31 11:10:00,48.6,25.9,30.03,SW,220,11.5,11.5,41,0.00,OVC,,0.00,552.0,WeatherDisplay:10.37,2013-03-31 15:10:00,
2013-03-31 11:15:00,48.9,26.2,30.03,South,170,11.5,11.5,41,0.00,OVC,,0.00,519.0,WeatherDisplay:10.37,2013-03-31 15:15:00,
2013-03-31 11:20:00,49.2,26.5,30.03,SW,216,12.7,12.7,41,0.00,OVC,,0.00,443.0,WeatherDisplay:10.37,2013-03-31 15:20:00,
2013-03-31 11:25:00,49.4,26.7,30.03,SW,220,6.0,6.0,41,0.00,OVC,,0.00,462.0,WeatherDisplay:10.37,2013-03-31 15:25:00,
2013-03-31 11:30:00,49.7,26.9,30.03,SSW,192,12.7,12.7,41,0.00,OVC,,0.00,487.0,WeatherDisplay:10.37,2013-03-31 15:30:00,
2013-03-31 11:35:00,49.8,27.0,30.03,South,186,13.8,13.8,41,0.00,OVC,,0.00,580.0,WeatherDisplay:10.37,2013-03-31 15:35:00,
2013-03-31 11:40:00,50.0,26.6,30.02,SSE,165,12.7,12.7,40,0.00,CLR,,0.00,603.0,WeatherDisplay:10.37,2013-03-31 15:40:00,
2013-03-31 11:45:00,50.3,26.9,30.02,SSE,150,12.7,12.7,40,0.00,CLR,,0.00,585.0,WeatherDisplay:10.37,2013-03-31 15:45:00,
2013-03-31 11:50:00,50.6,26.5,30.02,SW,222,10.4,10.4,39,0.00,CLR,,0.00,624.0,WeatherDisplay:10.37,2013-03-31 15:50:00,
2013-03-31 11:55:00,51.0,26.9,30.01,South,190,1.1,1.9,39,0.00,CLR,,0.00,664.0,WeatherDisplay:10.37,2013-03-31 15:55:00,
2013-03-31 12:00:00,51.4,25.3,30.01,SW,226,12.7,12.7,36,0.00,CLR,,0.00,694.0,WeatherDisplay:10.37,2013-03-31 16:00:00,
2013-03-31 12:05:00,51.8,27.0,30.01,WSW,243,12.7,12.7,38,0.00,CLR,,0.00,664.0,WeatherDisplay:10.37,2013-03-31 16:05:00,
2013-03-31 12:10:00,52.2,25.3,30.01,SW,219,11.5,11.5,35,0.00,CLR,,0.00,606.0,WeatherDisplay:10.37,2013-03-31 16:10:00,
2013-03-31 12:15:00,52.5,26.3,30.01,SW,216,10.4,10.4,36,0.00,CLR,,0.00,496.0,WeatherDisplay:10.37,2013-03-31 16:15:00,
2013-03-31 12:20:00,52.7,26.5,30.00,WSW,252,23.0,23.0,36,0.00,CLR,,0.00,503.0,WeatherDisplay:10.37,2013-03-31 16:20:00,
2013-03-31 12:25:00,52.6,26.4,30.00,SW,219,15.0,15.0,36,0.00,CLR,,0.00,434.0,WeatherDisplay:10.37,2013-03-31 16:25:00,
2013-03-31 12:30:00,52.4,26.9,30.00,WSW,244,11.5,11.5,37,0.00,CLR,,0.00,450.0,WeatherDisplay:10.37,2013-03-31 16:30:00,
2013-03-31 12:35:00,52.3,26.1,30.00,SW,229,11.5,11.5,36,0.00,CLR,,0.00,636.0,WeatherDisplay:10.37,2013-03-31 16:35:00,
2013-03-31 12:40:00,52.3,25.4,29.99,SSW,198,17.3,17.3,35,0.00,CLR,,0.00,584.0,WeatherDisplay:10.37,2013-03-31 16:40:00,
2013-03-31 12:45:00,52.3,26.1,29.99,SW,218,19.6,19.6,36,0.00,CLR,,0.00,534.0,WeatherDisplay:10.37,2013-03-31 16:45:00,
2013-03-31 12:50:00,52.2,26.0,29.99,South,179,16.1,16.1,36,0.00,CLR,,0.00,455.0,WeatherDisplay:10.37,2013-03-31 16:50:00,
2013-03-31 12:55:00,52.1,25.3,29.99,WSW,250,19.6,19.6,35,0.00,CLR,,0.00,404.0,WeatherDisplay:10.37,2013-03-31 16:55:00,
2013-03-31 13:00:00,51.9,25.8,29.98,SW,216,18.4,18.4,36,0.00,CLR,,0.00,443.0,WeatherDisplay:10.37,2013-03-31 17:00:00,
2013-03-31 13:05:00,52.0,26.5,29.97,SSE,162,10.4,10.4,37,0.00,CLR,,0.00,388.0,WeatherDisplay:10.37,2013-03-31 17:05:00,
2013-03-31 13:10:00,52.0,26.5,29.97,SW,229,6.0,7.4,37,0.00,CLR,,0.00,378.0,WeatherDisplay:10.37,2013-03-31 17:10:00,
2013-03-31 13:15:00,51.9,25.1,29.97,SSW,205,19.6,19.6,35,0.00,CLR,,0.00,352.0,WeatherDisplay:10.37,2013-03-31 17:15:00,
2013-03-31 13:20:00,51.6,25.5,29.97,SSW,205,11.5,11.5,36,0.00,CLR,,0.00,359.0,WeatherDisplay:10.37,2013-03-31 17:20:00,
2013-03-31 13:25:00,51.5,25.4,29.97,SSW,205,11.5,11.5,36,0.00,CLR,,0.00,332.0,WeatherDisplay:10.37,2013-03-31 17:25:00,
2013-03-31 13:30:00,51.4,24.6,29.97,WSW,255,17.3,17.3,35,0.00,CLR,,0.00,371.0,WeatherDisplay:10.37,2013-03-31 17:30:00,
2013-03-31 13:36:00,51.3,23.8,29.97,West,267,20.7,20.7,34,0.00,CLR,,0.00,383.0,WeatherDisplay:10.37,2013-03-31 17:36:00,
2013-03-31 13:41:00,51.3,24.5,29.97,SSW,211,18.4,18.4,35,0.00,CLR,,0.00,367.0,WeatherDisplay:10.37,2013-03-31 17:41:00,
2013-03-31 13:46:00,51.4,25.3,29.96,SW,224,6.9,6.9,36,0.00,CLR,,0.00,357.0,WeatherDisplay:10.37,2013-03-31 17:46:00,
2013-03-31 13:51:00,51.6,25.5,29.96,SE,136,9.0,9.0,36,0.00,CLR,,0.00,401.0,WeatherDisplay:10.37,2013-03-31 17:51:00,
2013-03-31 13:56:00,51.6,24.1,29.96,SSW,213,18.4,18.4,34,0.00,FEW,,0.00,350.0,WeatherDisplay:10.37,2013-03-31 17:56:00,
2013-03-31 14:01:00,51.6,25.5,29.95,SW,214,20.7,20.7,36,0.00,FEW,,0.00,301.0,WeatherDisplay:10.37,2013-03-31 18:01:00,
2013-03-31 14:06:00,51.5,25.4,29.95,SW,229,14.0,14.0,36,0.00,FEW,,0.00,294.0,WeatherDisplay:10.37,2013-03-31 18:06:00,
2013-03-31 14:11:00,51.5,26.1,29.95,SSW,196,13.8,13.8,37,0.00,SCT,,0.00,276.0,WeatherDisplay:10.37,2013-03-31 18:11:00,
2013-03-31 14:16:00,51.4,26.6,29.95,SSW,195,16.1,16.1,38,0.00,SCT,,0.00,269.0,WeatherDisplay:10.37,2013-03-31 18:16:00,
2013-03-31 14:21:00,51.3,26.5,29.94,SSW,202,17.3,17.3,38,0.00,SCT,,0.00,250.0,WeatherDisplay:10.37,2013-03-31 18:21:00,
2013-03-31 14:26:00,51.2,26.4,29.94,SW,221,9.2,9.2,38,0.00,SCT,,0.00,241.0,WeatherDisplay:10.37,2013-03-31 18:26:00,
2013-03-31 14:31:00,51.2,26.4,29.94,South,190,12.7,12.7,38,0.00,SCT,,0.00,248.0,WeatherDisplay:10.37,2013-03-31 18:31:00,
2013-03-31 14:36:00,51.1,27.0,29.94,SW,219,20.7,20.7,39,0.00,BKN,,0.00,218.0,WeatherDisplay:10.37,2013-03-31 18:36:00,
2013-03-31 14:41:00,51.0,27.5,29.94,SSW,203,11.5,11.5,40,0.00,BKN,,0.00,225.0,WeatherDisplay:10.37,2013-03-31 18:41:00,
2013-03-31 14:46:00,50.9,27.4,29.94,SSW,200,18.4,18.4,40,0.00,BKN,,0.00,244.0,WeatherDisplay:10.37,2013-03-31 18:46:00,
2013-03-31 14:51:00,50.6,26.5,29.93,SW,220,15.0,15.0,39,0.00,BKN,,0.00,230.0,WeatherDisplay:10.37,2013-03-31 18:51:00,
2013-03-31 14:56:00,50.5,25.8,29.93,WSW,240,16.1,16.1,38,0.00,BKN,,0.00,253.0,WeatherDisplay:10.37,2013-03-31 18:56:00,
2013-03-31 15:01:00,50.5,26.4,29.92,South,190,12.7,12.7,39,0.00,SCT,,0.00,304.0,WeatherDisplay:10.37,2013-03-31 19:01:00,
2013-03-31 15:06:00,50.6,25.9,29.92,SSW,209,15.0,15.0,38,0.00,SCT,,0.00,301.0,WeatherDisplay:10.37,2013-03-31 19:06:00,
2013-03-31 15:11:00,50.7,26.6,29.92,SW,228,10.4,10.4,39,0.00,SCT,,0.00,302.0,WeatherDisplay:10.37,2013-03-31 19:11:00,
2013-03-31 15:16:00,50.9,26.8,29.92,SSE,165,9.2,9.2,39,0.00,BKN,,0.00,287.0,WeatherDisplay:10.37,2013-03-31 19:16:00,
2013-03-31 15:21:00,51.1,27.6,29.91,SSW,199,10.4,10.4,40,0.00,BKN,,0.00,292.0,WeatherDisplay:10.37,2013-03-31 19:21:00,
2013-03-31 15:27:00,51.3,27.2,29.91,SSE,161,12.7,12.7,39,0.00,BKN,,0.00,309.0,WeatherDisplay:10.37,2013-03-31 19:27:00,
2013-03-31 15:32:00,51.4,27.2,29.91,South,173,12.7,12.7,39,0.00,SCT,,0.00,330.0,WeatherDisplay:10.37,2013-03-31 19:32:00,
2013-03-31 15:37:00,51.5,27.3,29.91,WSW,243,16.1,16.1,39,0.00,BKN,,0.00,304.0,WeatherDisplay:10.37,2013-03-31 19:37:00,
2013-03-31 15:42:00,51.5,26.7,29.91,SSE,167,16.0,16.0,38,0.00,BKN,,0.00,315.0,WeatherDisplay:10.37,2013-03-31 19:42:00,
2013-03-31 15:47:00,51.5,26.7,29.91,SW,215,11.5,11.5,38,0.00,BKN,,0.00,315.0,WeatherDisplay:10.37,2013-03-31 19:47:00,
2013-03-31 15:52:00,51.5,26.1,29.91,SW,217,12.7,12.7,37,0.00,BKN,,0.00,323.0,WeatherDisplay:10.37,2013-03-31 19:52:00,
2013-03-31 15:57:00,51.5,26.7,29.90,SSW,200,17.0,17.0,38,0.00,BKN,,0.00,255.0,WeatherDisplay:10.37,2013-03-31 19:57:00,
2013-03-31 16:02:00,51.5,27.3,29.90,SW,219,21.9,21.9,39,0.00,BKN,,0.00,232.0,WeatherDisplay:10.37,2013-03-31 20:02:00,
2013-03-31 16:07:00,51.4,27.9,29.90,West,259,12.7,12.7,40,0.00,BKN,,0.00,218.0,WeatherDisplay:10.37,2013-03-31 20:07:00,
2013-03-31 16:12:00,51.2,27.7,29.89,SSW,210,5.8,5.8,40,0.00,BKN,,0.00,221.0,WeatherDisplay:10.37,2013-03-31 20:12:00,
2013-03-31 16:17:00,51.1,28.8,29.90,South,186,13.0,13.0,42,0.00,BKN,,0.00,236.0,WeatherDisplay:10.37,2013-03-31 20:17:00,
2013-03-31 16:22:00,50.9,28.0,29.90,SSW,211,12.7,12.7,41,0.00,BKN,,0.00,218.0,WeatherDisplay:10.37,2013-03-31 20:22:00,
2013-03-31 16:27:00,50.8,28.5,29.89,South,187,11.5,11.5,42,0.00,BKN,,0.00,214.0,WeatherDisplay:10.37,2013-03-31 20:27:00,
2013-03-31 16:32:00,50.7,27.8,29.89,South,189,9.0,9.0,41,0.00,BKN,,0.00,211.0,WeatherDisplay:10.37,2013-03-31 20:32:00,
2013-03-31 16:37:00,50.6,28.3,29.89,South,191,4.6,4.6,42,0.00,BKN,,0.00,169.0,WeatherDisplay:10.37,2013-03-31 20:37:00,
2013-03-31 16:42:00,50.5,27.7,29.89,SSE,162,13.8,13.8,41,0.00,BKN,,0.00,188.0,WeatherDisplay:10.37,2013-03-31 20:42:00,
2013-03-31 16:47:00,50.4,28.1,29.89,SSW,202,16.0,16.0,42,0.00,BKN,,0.00,207.0,WeatherDisplay:10.37,2013-03-31 20:47:00,
2013-03-31 16:52:00,50.3,28.1,29.89,South,178,16.1,16.1,42,0.00,BKN,,0.00,179.0,WeatherDisplay:10.37,2013-03-31 20:52:00,
2013-03-31 16:57:00,50.2,28.0,29.89,SSE,156,11.5,11.5,42,0.00,BKN,,0.00,146.0,WeatherDisplay:10.37,2013-03-31 20:57:00,
2013-03-31 17:02:00,50.0,27.8,29.89,South,181,25.0,25.0,42,0.00,BKN,,0.00,137.0,WeatherDisplay:10.37,2013-03-31 21:02:00,
2013-03-31 17:07:00,49.8,27.6,29.89,SSE,153,23.0,23.0,42,0.00,BKN,,0.00,134.0,WeatherDisplay:10.37,2013-03-31 21:07:00,
2013-03-31 17:12:00,49.8,27.0,29.89,SSW,211,11.5,11.5,41,0.00,BKN,,0.00,148.0,WeatherDisplay:10.37,2013-03-31 21:12:00,
2013-03-31 17:17:00,49.7,26.9,29.89,SSW,205,16.1,16.1,41,0.00,BKN,,0.00,121.0,WeatherDisplay:10.37,2013-03-31 21:17:00,
2013-03-31 17:22:00,49.7,27.5,29.88,SSW,198,10.4,10.4,42,0.00,BKN,,0.00,86.0,WeatherDisplay:10.37,2013-03-31 21:22:00,
2013-03-31 17:27:00,49.6,27.4,29.89,SSW,202,17.3,17.3,42,0.00,BKN,,0.00,81.0,WeatherDisplay:10.37,2013-03-31 21:27:00,
2013-03-31 17:32:00,49.3,26.6,29.88,SSE,165,20.7,20.7,41,0.00,BKN,,0.00,65.0,WeatherDisplay:10.37,2013-03-31 21:32:00,
2013-03-31 17:37:00,49.1,27.0,29.88,WSW,243,6.9,6.9,42,0.00,OVC,,0.00,62.0,WeatherDisplay:10.37,2013-03-31 21:37:00,
2013-03-31 17:42:00,48.8,27.3,29.88,SW,236,9.2,9.2,43,0.00,OVC,,0.00,60.0,WeatherDisplay:10.37,2013-03-31 21:42:00,
2013-03-31 17:47:00,48.5,27.6,29.88,SSE,154,25.3,25.3,44,0.00,BKN,,0.00,69.0,WeatherDisplay:10.37,2013-03-31 21:47:00,
2013-03-31 17:52:00,48.2,27.3,29.88,SSW,201,11.5,11.5,44,0.00,OVC,,0.00,63.0,WeatherDisplay:10.37,2013-03-31 21:52:00,
2013-03-31 17:57:00,47.9,27.0,29.88,West,259,7.0,11.2,44,0.00,OVC,,0.00,49.0,WeatherDisplay:10.37,2013-03-31 21:57:00,
2013-03-31 18:03:00,47.7,27.4,29.88,SW,215,6.9,6.9,45,0.00,CLR,,0.00,42.0,WeatherDisplay:10.37,2013-03-31 22:03:00,
2013-03-31 18:08:00,47.5,27.7,29.88,SSW,211,11.5,11.5,46,0.00,CLR,,0.00,37.0,WeatherDisplay:10.37,2013-03-31 22:08:00,
2013-03-31 18:13:00,47.3,27.5,29.88,WNW,284,12.7,12.7,46,0.00,CLR,,0.00,32.0,WeatherDisplay:10.37,2013-03-31 22:13:00,
2013-03-31 18:18:00,47.1,28.4,29.88,SW,225,19.6,19.6,48,0.00,CLR,,0.00,26.0,WeatherDisplay:10.37,2013-03-31 22:18:00,
2013-03-31 18:23:00,46.9,28.7,29.88,SW,226,11.5,11.8,49,0.00,CLR,,0.00,25.0,WeatherDisplay:10.37,2013-03-31 22:23:00,
2013-03-31 18:28:00,46.6,28.9,29.88,SW,215,13.8,13.8,50,0.00,CLR,,0.00,19.0,WeatherDisplay:10.37,2013-03-31 22:28:00,
2013-03-31 18:33:00,46.4,29.2,29.88,SW,234,11.5,11.5,51,0.00,CLR,,0.00,12.0,WeatherDisplay:10.37,2013-03-31 22:33:00,
2013-03-31 18:38:00,46.1,30.4,29.89,South,191,15.0,15.0,54,0.00,CLR,,0.00,11.0,WeatherDisplay:10.37,2013-03-31 22:38:00,
2013-03-31 18:43:00,45.8,30.5,29.89,South,180,8.1,8.1,55,0.00,CLR,,0.00,7.0,WeatherDisplay:10.37,2013-03-31 22:43:00,
2013-03-31 18:48:00,45.4,32.3,29.89,SSW,205,15.0,15.0,60,0.00,CLR,,0.00,5.0,WeatherDisplay:10.37,2013-03-31 22:48:00,
2013-03-31 18:53:00,45.0,33.5,29.89,SSW,199,10.0,21.0,64,0.00,CLR,CLR,0.00,0.0,WeatherDisplay:10.37,2013-03-31 22:53:00,
2013-03-31 18:58:00,44.3,34.0,29.89,SSW,198,16.1,16.1,67,0.00,CLR,,0.00,0.0,WeatherDisplay:10.37,2013-03-31 22:58:00,
2013-03-31 19:03:00,43.8,34.6,29.89,SSW,208,9.0,21.0,70,0.00,CLR,CLR,0.00,0.0,WeatherDisplay:10.37,2013-03-31 23:03:00,
2013-03-31 19:08:00,43.2,34.8,29.89,WSW,239,9.2,9.2,72,0.00,CLR,,0.01,0.0,WeatherDisplay:10.37,2013-03-31 23:08:00,
2013-03-31 19:13:00,42.6,34.9,29.89,South,190,19.6,19.6,74,0.01,RA,,0.01,0.0,WeatherDisplay:10.37,2013-03-31 23:13:00,
2013-03-31 19:18:00,42.1,35.1,29.89,SSW,198,14.0,14.0,76,0.01,,,0.01,0.0,WeatherDisplay:10.37,2013-03-31 23:18:00,
2013-03-31 19:23:00,41.6,34.9,29.89,SSE,168,6.9,6.9,77,0.01,CLR,,0.01,0.0,WeatherDisplay:10.37,2013-03-31 23:23:00,
2013-03-31 19:28:00,41.2,35.2,29.89,SSW,198,14.0,14.0,79,0.02,RA,,0.02,0.0,WeatherDisplay:10.37,2013-03-31 23:28:00,
2013-03-31 19:33:00,40.8,35.1,29.88,SSE,150,11.5,11.5,80,0.02,RA,,0.02,0.0,WeatherDisplay:10.37,2013-03-31 23:33:00,
2013-03-31 19:38:00,40.5,35.4,29.88,South,172,11.5,11.5,82,0.02,CLR,,0.03,0.0,WeatherDisplay:10.37,2013-03-31 23:38:00,
2013-03-31 19:43:00,40.2,35.4,29.88,SSW,193,11.5,11.5,83,0.03,RA,,0.03,0.0,WeatherDisplay:10.37,2013-03-31 23:43:00,
2013-03-31 19:48:00,39.9,35.5,29.88,SSW,202,5.8,5.8,84,0.03,RA,,0.03,0.0,WeatherDisplay:10.37,2013-03-31 23:48:00,
2013-03-31 19:53:00,39.6,35.2,29.88,South,175,4.6,4.6,84,0.03,CLR,,0.03,0.0,WeatherDisplay:10.37,2013-03-31 23:53:00,
2013-03-31 19:58:00,39.5,35.4,29.87,South,169,5.8,5.8,85,0.04,RA,,0.04,0.0,WeatherDisplay:10.37,2013-03-31 23:58:00,
2013-03-31 20:03:00,39.3,35.2,29.87,SE,139,5.8,5.8,85,0.04,RA,,0.04,0.0,WeatherDisplay:10.37,2013-04-01 00:03:00,
2013-03-31 20:08:00,39.1,35.3,29.86,South,178,4.6,4.6,86,0.03,CLR,,0.04,0.0,WeatherDisplay:10.37,2013-04-01 00:08:00,
2013-03-31 20:13:00,38.9,35.1,29.86,South,190,4.6,4.6,86,0.03,CLR,,0.04,0.0,WeatherDisplay:10.37,2013-04-01 00:13:00,
2013-03-31 20:18:00,38.8,35.3,29.86,SE,146,5.8,5.8,87,0.03,CLR,,0.04,0.0,WeatherDisplay:10.37,2013-04-01 00:18:00,
2013-03-31 20:23:00,38.7,35.5,29.86,SSE,162,10.4,10.4,88,0.04,RA,,0.05,0.0,WeatherDisplay:10.37,2013-04-01 00:23:00,
2013-03-31 20:28:00,38.6,35.4,29.86,SE,128,0.0,0.0,88,0.03,RA,,0.05,0.0,WeatherDisplay:10.37,2013-04-01 00:28:00,
2013-03-31 20:33:00,38.5,35.5,29.85,SSW,202,4.6,4.6,89,0.03,CLR,,0.05,0.0,WeatherDisplay:10.37,2013-04-01 00:33:00,
2013-03-31 20:38:00,38.4,35.4,29.85,SSE,156,5.8,5.8,89,0.03,CLR,,0.05,0.0,WeatherDisplay:10.37,2013-04-01 00:38:00,
2013-03-31 20:43:00,38.3,35.6,29.85,South,171,10.4,10.4,90,0.03,RA,,0.06,0.0,WeatherDisplay:10.37,2013-04-01 00:43:00,
2013-03-31 20:48:00,38.3,35.6,29.85,SSE,163,5.8,5.8,90,0.03,RA,,0.06,0.0,WeatherDisplay:10.37,2013-04-01 00:48:00,
2013-03-31 20:53:00,38.2,35.5,29.84,SSE,159,7.0,7.0,90,0.03,CLR,,0.06,0.0,WeatherDisplay:10.37,2013-04-01 00:53:00,
2013-03-31 20:58:00,38.1,35.4,29.84,SSE,163,6.0,6.0,90,0.02,CLR,,0.06,0.0,WeatherDisplay:10.37,2013-04-01 00:58:00,
2013-03-31 21:03:00,38.1,35.7,29.84,SSW,210,3.5,3.5,91,0.02,CLR,,0.06,0.0,WeatherDisplay:10.37,2013-04-01 01:03:00,
2013-03-31 21:08:00,38.1,35.7,29.83,ESE,117,3.5,3.5,91,0.02,CLR,,0.06,0.0,WeatherDisplay:10.37,2013-04-01 01:08:00,
2013-03-31 21:13:00,38.0,35.6,29.83,ESE,108,2.3,2.3,91,0.02,CLR,,0.06,0.0,WeatherDisplay:10.37,2013-04-01 01:13:00,
2013-03-31 21:18:00,38.0,35.6,29.82,SSE,148,3.5,3.5,91,0.02,CLR,,0.06,0.0,WeatherDisplay:10.37,2013-04-01 01:18:00,
2013-03-31 21:23:00,38.0,35.9,29.82,SE,141,5.8,5.8,92,0.01,CLR,,0.06,0.0,WeatherDisplay:10.37,2013-04-01 01:23:00,
2013-03-31 21:28:00,38.0,35.9,29.81,SE,132,3.5,3.5,92,0.01,CLR,,0.06,0.0,WeatherDisplay:10.37,2013-04-01 01:28:00,
2013-03-31 21:33:00,38.0,35.9,29.81,ESE,104,5.8,5.8,92,0.01,CLR,,0.06,0.0,WeatherDisplay:10.37,2013-04-01 01:33:00,
2013-03-31 21:38:00,38.0,35.9,29.80,ESE,111,3.5,3.5,92,0.01,CLR,,0.06,0.0,WeatherDisplay:10.37,2013-04-01 01:38:00,
2013-03-31 21:43:00,38.0,35.9,29.79,SE,130,4.6,4.6,92,0.00,CLR,,0.06,0.0,WeatherDisplay:10.37,2013-04-01 01:43:00,
2013-03-31 21:48:00,37.9,36.1,29.79,ESE,121,4.6,4.6,93,0.00,CLR,,0.06,0.0,WeatherDisplay:10.37,2013-04-01 01:48:00,
2013-03-31 21:53:00,38.0,36.2,29.79,ESE,119,5.8,5.8,93,0.00,CLR,,0.06,0.0,WeatherDisplay:10.37,2013-04-01 01:53:00,
2013-03-31 21:58:00,38.0,36.2,29.78,ESE,115,4.0,4.0,93,0.00,CLR,,0.06,0.0,WeatherDisplay:10.37,2013-04-01 01:58:00,
2013-03-31 22:03:00,38.0,36.2,29.78,East,101,6.9,6.9,93,0.00,CLR,,0.06,0.0,WeatherDisplay:10.37,2013-04-01 02:03:00,
2013-03-31 22:08:00,38.0,36.2,29.77,East,96,10.4,10.4,93,0.01,RA,,0.07,0.0,WeatherDisplay:10.37,2013-04-01 02:08:00,
2013-03-31 22:13:00,38.0,36.2,29.76,ESE,123,7.0,7.0,93,0.01,RA,,0.07,0.0,WeatherDisplay:10.37,2013-04-01 02:13:00,
2013-03-31 22:18:00,38.0,36.4,29.76,SSE,157,3.5,3.5,94,0.01,,,0.07,0.0,WeatherDisplay:10.37,2013-04-01 02:18:00,
2013-03-31 22:23:00,38.0,36.4,29.76,South,188,1.0,0.0,94,0.01,CLR,,0.07,0.0,WeatherDisplay:10.37,2013-04-01 02:23:00,
2013-03-31 22:28:00,38.1,36.5,29.75,ESE,110,6.9,6.9,94,0.01,CLR,,0.07,0.0,WeatherDisplay:10.37,2013-04-01 02:28:00,
2013-03-31 22:33:00,38.1,36.5,29.75,SSE,168,4.6,4.6,94,0.01,CLR,,0.07,0.0,WeatherDisplay:10.37,2013-04-01 02:33:00,
2013-03-31 22:38:00,38.1,36.5,29.75,ESE,105,4.0,4.0,94,0.01,CLR,,0.07,0.0,WeatherDisplay:10.37,2013-04-01 02:38:00,
2013-03-31 22:43:00,38.2,36.6,29.75,East,81,3.5,0.0,94,0.01,CLR,,0.07,0.0,WeatherDisplay:10.37,2013-04-01 02:43:00,
2013-03-31 22:48:00,38.2,36.6,29.75,ESE,123,5.0,5.0,94,0.01,CLR,,0.07,0.0,WeatherDisplay:10.37,2013-04-01 02:48:00,
2013-03-31 22:53:00,38.3,36.7,29.75,East,88,4.6,4.6,94,0.01,CLR,,0.07,0.0,WeatherDisplay:10.37,2013-04-01 02:53:00,
2013-03-31 22:58:00,38.4,36.8,29.75,East,91,6.9,6.9,94,0.01,CLR,,0.07,0.0,WeatherDisplay:10.37,2013-04-01 02:58:00,
2013-03-31 23:03:00,38.4,36.8,29.75,East,96,3.5,3.5,94,0.01,CLR,,0.07,0.0,WeatherDisplay:10.37,2013-04-01 03:03:00,
2013-03-31 23:08:00,38.5,36.7,29.74,ENE,76,3.5,3.5,93,0.00,CLR,,0.07,0.0,WeatherDisplay:10.37,2013-04-01 03:08:00,
2013-03-31 23:13:00,38.5,36.7,29.74,East,90,10.4,10.4,93,0.00,CLR,,0.07,0.0,WeatherDisplay:10.37,2013-04-01 03:13:00,
2013-03-31 23:19:00,38.6,36.8,29.73,East,101,8.1,8.1,93,0.00,CLR,,0.07,0.0,WeatherDisplay:10.37,2013-04-01 03:19:00,
2013-03-31 23:24:00,38.7,37.1,29.72,ESE,103,5.8,5.8,94,0.01,RA,,0.08,0.0,WeatherDisplay:10.37,2013-04-01 03:24:00,
2013-03-31 23:29:00,38.7,37.1,29.71,ESE,108,11.5,11.5,94,0.02,RA,,0.09,0.0,WeatherDisplay:10.37,2013-04-01 03:29:00,
2013-03-31 23:34:00,38.6,36.8,29.71,ENE,76,6.9,6.9,93,0.03,RA,,0.10,0.0,WeatherDisplay:10.37,2013-04-01 03:34:00,
2013-03-31 23:39:00,38.6,36.8,29.71,ENE,77,4.6,4.6,93,0.04,RA,,0.11,0.0,WeatherDisplay:10.37,2013-04-01 03:39:00,
2013-03-31 23:44:00,38.6,36.8,29.71,SE,133,5.8,5.8,93,0.04,RA,,0.12,0.0,WeatherDisplay:10.37,2013-04-01 03:44:00,
2013-03-31 23:49:00,38.6,37.0,29.70,ENE,64,3.5,4.4,94,0.06,RA,,0.13,0.0,WeatherDisplay:10.37,2013-04-01 03:49:00,
2013-03-31 23:54:00,38.5,36.9,29.70,ESE,121,7.0,7.0,94,0.07,RA,,0.14,0.0,WeatherDisplay:10.37,2013-04-01 03:54:00,
2013-03-31 23:59:00,38.4,36.8,29.70,ESE,116,5.8,5.8,94,0.08,RA,,0.15,0.0,WeatherDisplay:10.37,2013-04-01 03:59:00,